createdAt,value
2022-10-23T00:00:03.718Z,98906.80
2022-10-23T00:02:57.105Z,98914.20
2022-10-23T00:05:30.311Z,98915.12
2022-10-23T00:08:04.148Z,98920.73
2022-10-23T00:10:37.019Z,98924.30
2022-10-23T00:13:08.471Z,98925.14
2022-10-23T00:15:39.949Z,98924.31
2022-10-23T00:18:11.488Z,98925.36
2022-10-23T00:20:42.968Z,98927.58
2022-10-23T00:23:14.407Z,98927.64
2022-10-23T00:25:45.801Z,98932.64
2022-10-23T00:28:17.255Z,98930.65
2022-10-23T00:30:48.619Z,98927.56
2022-10-23T00:33:20.075Z,98932.73
2022-10-23T00:35:51.546Z,98928.27
2022-10-23T00:38:23.103Z,98926.15
2022-10-23T00:40:54.771Z,98930.06
2022-10-23T00:43:31.028Z,98926.52
2022-10-23T00:46:02.576Z,98932.45
2022-10-23T00:48:33.975Z,98934.45
2022-10-23T00:51:05.568Z,98932.86
2022-10-23T00:53:37.162Z,98927.24
2022-10-23T00:56:09.570Z,98923.25
2022-10-23T00:58:41.024Z,98923.33
2022-10-23T01:01:20.790Z,98921.27
2022-10-23T01:03:53.357Z,98925.64
2022-10-23T01:06:38.286Z,98925.44
2022-10-23T01:09:18.926Z,98924.61
2022-10-23T01:11:59.243Z,98930.18
2022-10-23T01:14:39.461Z,98939.05
2022-10-23T01:17:26.196Z,98940.40
2022-10-23T01:20:32.840Z,98946.80
2022-10-23T01:23:37.376Z,98948.06
2022-10-23T01:26:19.683Z,98946.23
2022-10-23T01:28:55.975Z,98948.78
2022-10-23T01:31:38.474Z,98954.76
2022-10-23T01:34:16.556Z,98950.01
2022-10-23T01:36:53.493Z,98950.59
2022-10-23T01:39:29.496Z,98951.25
2022-10-23T01:42:09.672Z,98945.32
2022-10-23T01:45:04.545Z,98947.23
2022-10-23T01:47:40.860Z,98954.50
2022-10-23T01:50:27.708Z,98954.20
2022-10-23T01:53:05.771Z,98952.55
2022-10-23T01:58:21.684Z,98960.34
2022-10-23T02:00:53.989Z,98956.73
2022-10-23T02:03:28.497Z,98958.33
2022-10-23T02:06:01.575Z,98957.77
2022-10-23T02:08:34.105Z,98959.58
2022-10-23T02:11:11.450Z,98952.47
2022-10-23T02:13:50.996Z,98950.60
2022-10-23T02:16:37.761Z,98949.61
2022-10-23T02:19:18.923Z,98953.79
2022-10-23T02:22:28.947Z,98957.02
2022-10-23T02:24:58.145Z,98957.20
2022-10-23T02:27:36.757Z,98961.25
2022-10-23T02:30:13.694Z,98965.06
2022-10-23T02:33:12.149Z,98960.81
2022-10-23T02:35:43.875Z,98963.58
2022-10-23T02:38:34.365Z,98969.33
2022-10-23T02:41:41.412Z,98974.15
2022-10-23T02:44:38.356Z,98971.02
2022-10-23T02:47:22.439Z,98975.55
2022-10-23T02:49:57.556Z,98980.30
2022-10-23T02:52:39.692Z,98980.21
2022-10-23T02:55:19.090Z,98978.75
2022-10-23T02:58:00.092Z,98986.42
2022-10-23T03:00:33.647Z,98987.14
2022-10-23T03:03:11.738Z,98985.70
2022-10-23T03:05:44.965Z,98987.05
2022-10-23T03:08:17.207Z,98984.20
2022-10-23T03:11:11.608Z,98980.28
2022-10-23T03:13:45.254Z,98974.62
2022-10-23T03:16:33.951Z,98973.74
2022-10-23T03:21:50.871Z,98982.23
2022-10-23T03:24:22.528Z,98984.01
2022-10-23T03:26:54.187Z,98987.30
2022-10-23T03:29:25.627Z,98986.55
2022-10-23T03:31:57.084Z,98989.50
2022-10-23T03:34:28.661Z,98997.19
2022-10-23T03:37:00.183Z,98998.69
2022-10-23T03:39:55.162Z,98998.77
2022-10-23T03:42:26.867Z,98997.75
2022-10-23T03:45:01.162Z,99002.10
2022-10-23T03:47:36.016Z,99005.75
2022-10-23T03:50:31.159Z,99003.78
2022-10-23T03:53:02.705Z,99008.33
2022-10-23T03:55:58.456Z,99006.27
2022-10-23T03:58:43.923Z,99002.14
2022-10-23T04:01:15.479Z,99004.73
2022-10-23T04:03:48.201Z,99005.77
2022-10-23T04:06:19.717Z,99010.95
2022-10-23T04:08:51.199Z,99009.16
2022-10-23T04:11:22.593Z,99004.66
2022-10-23T04:13:54.112Z,99006.73
2022-10-23T04:16:26.043Z,99006.20
2022-10-23T04:18:59.879Z,99003.51
2022-10-23T04:21:32.887Z,99002.22
2022-10-23T04:24:04.665Z,98998.89
2022-10-23T04:26:38.978Z,98990.34
2022-10-23T04:29:13.253Z,98985.29
2022-10-23T04:31:44.655Z,98984.33
2022-10-23T04:34:16.225Z,98980.34
2022-10-23T04:36:50.611Z,98980.05
2022-10-23T04:39:22.169Z,98984.83
2022-10-23T04:42:14.178Z,98986.70
2022-10-23T04:44:45.773Z,98985.45
2022-10-23T04:47:17.170Z,98983.39
2022-10-23T04:49:48.576Z,98981.91
2022-10-23T04:52:20.334Z,98983.61
2022-10-23T04:54:52.096Z,98984.76
2022-10-23T04:57:26.315Z,98984.48
2022-10-23T04:59:57.778Z,98988.77
2022-10-23T05:02:29.233Z,98987.30
2022-10-23T05:05:00.742Z,98985.06
2022-10-23T05:07:32.296Z,98982.85
2022-10-23T05:10:04.083Z,98979.63
2022-10-23T05:12:36.061Z,98980.30
2022-10-23T05:15:11.251Z,98981.65
2022-10-23T05:17:45.576Z,98992.21
2022-10-23T05:20:27.089Z,98991.81
2022-10-23T05:23:01.553Z,98991.58
2022-10-23T05:25:40.671Z,98988.24
2022-10-23T05:28:33.099Z,98988.09
2022-10-23T05:31:09.715Z,98988.90
2022-10-23T05:33:41.348Z,98995.80
2022-10-23T05:36:15.492Z,98996.09
2022-10-23T05:38:49.224Z,98997.60
2022-10-23T05:41:48.802Z,99001.14
2022-10-23T05:44:20.668Z,99004.38
2022-10-23T05:47:12.369Z,99012.28
2022-10-23T05:49:43.840Z,99011.15
2022-10-23T05:52:19.991Z,99012.75
2022-10-23T05:54:53.425Z,99011.05
2022-10-23T05:57:24.949Z,99019.41
2022-10-23T05:59:56.488Z,99026.50
2022-10-23T06:02:29.840Z,99030.92
2022-10-23T06:05:22.476Z,99028.80
2022-10-23T06:07:53.904Z,99029.23
2022-10-23T06:10:28.924Z,99033.02
2022-10-23T06:13:00.493Z,99040.19
2022-10-23T06:15:32.084Z,99046.20
2022-10-23T06:18:28.283Z,99049.39
2022-10-23T06:21:00.991Z,99051.14
2022-10-23T06:23:35.375Z,99057.44
2022-10-23T06:26:09.183Z,99051.03
2022-10-23T06:28:41.836Z,99059.84
2022-10-23T06:31:15.551Z,99060.49
2022-10-23T06:33:47.497Z,99068.80
2022-10-23T06:36:19.032Z,99065.03
2022-10-23T06:38:52.168Z,99063.35
2022-10-23T06:41:24.507Z,99059.30
2022-10-23T06:43:55.923Z,99053.73
2022-10-23T06:46:29.888Z,99059.77
2022-10-23T06:49:01.419Z,99068.39
2022-10-23T06:51:32.855Z,99069.48
2022-10-23T06:54:04.283Z,99074.60
2022-10-23T06:56:35.719Z,99071.32
2022-10-23T06:59:08.602Z,99077.99
2022-10-23T07:01:40.261Z,99078.56
2022-10-23T07:04:14.223Z,99080.61
2022-10-23T07:06:45.680Z,99074.77
2022-10-23T07:09:17.201Z,99072.23
2022-10-23T07:11:48.747Z,99069.51
2022-10-23T07:14:20.415Z,99068.08
2022-10-23T07:16:52.177Z,99072.40
2022-10-23T07:19:23.803Z,99066.22
2022-10-23T07:21:55.444Z,99068.42
2022-10-23T07:24:28.528Z,99063.96
2022-10-23T07:27:00.404Z,99066.17
2022-10-23T07:29:32.385Z,99068.66
2022-10-23T07:32:04.792Z,99061.95
2022-10-23T07:34:36.901Z,99053.59
2022-10-23T07:37:08.698Z,99056.84
2022-10-23T07:39:40.481Z,99069.52
2022-10-23T07:42:12.855Z,99067.98
2022-10-23T07:44:44.815Z,99066.91
2022-10-23T07:47:16.471Z,99068.23
2022-10-23T07:49:51.522Z,99066.04
2022-10-23T07:52:23.185Z,99067.59
2022-10-23T07:54:55.230Z,99067.28
2022-10-23T07:57:26.983Z,99066.63
2022-10-23T07:59:58.700Z,99060.85
2022-10-23T08:02:30.477Z,99055.75
2022-10-23T08:05:02.178Z,99055.81
2022-10-23T08:07:33.877Z,99062.98
2022-10-23T08:10:06.813Z,99060.65
2022-10-23T08:12:39.972Z,99065.23
2022-10-23T08:15:12.778Z,99064.33
2022-10-23T08:17:44.644Z,99079.71
2022-10-23T08:20:16.839Z,99076.58
2022-10-23T08:22:48.716Z,99072.36
2022-10-23T08:25:25.000Z,99077.54
2022-10-23T08:27:57.691Z,99081.59
2022-10-23T08:30:29.545Z,99081.32
2022-10-23T08:33:01.175Z,99084.99
2022-10-23T08:35:38.207Z,99083.02
2022-10-23T08:38:11.309Z,99086.19
2022-10-23T08:40:47.453Z,99087.30
2022-10-23T08:43:29.608Z,99086.67
2022-10-23T08:46:08.609Z,99090.87
2022-10-23T08:48:49.507Z,99087.71
2022-10-23T08:51:28.379Z,99088.73
2022-10-23T08:54:07.480Z,99090.27
2022-10-23T08:56:42.619Z,99092.02
2022-10-23T08:59:23.123Z,99091.42
2022-10-23T09:01:59.660Z,99096.98
2022-10-23T09:04:31.879Z,99100.79
2022-10-23T09:07:16.085Z,99102.05
2022-10-23T09:10:04.359Z,99102.27
2022-10-23T09:12:36.023Z,99105.80
2022-10-23T09:15:31.801Z,99108.77
2022-10-23T09:18:16.421Z,99112.69
2022-10-23T09:20:52.390Z,99114.45
2022-10-23T09:23:26.156Z,99116.31
2022-10-23T09:25:58.930Z,99120.64
2022-10-23T09:28:33.452Z,99124.71
2022-10-23T09:31:11.838Z,99125.88
2022-10-23T09:33:54.275Z,99126.46
2022-10-23T09:36:30.047Z,99125.06
2022-10-23T09:39:02.540Z,99124.02
2022-10-23T09:41:38.469Z,99121.05
2022-10-23T09:44:21.999Z,99119.48
2022-10-23T09:46:56.818Z,99114.50
2022-10-23T09:49:30.396Z,99123.46
2022-10-23T09:52:04.798Z,99132.81
2022-10-23T09:54:38.187Z,99137.95
2022-10-23T09:57:29.996Z,99144.90
2022-10-23T10:00:05.465Z,99145.89
2022-10-23T10:02:38.936Z,99140.91
2022-10-23T10:05:27.567Z,99134.26
2022-10-23T10:08:06.002Z,99132.36
2022-10-23T10:10:43.598Z,99126.88
2022-10-23T10:13:42.697Z,99125.42
2022-10-23T10:16:21.932Z,99115.03
2022-10-23T10:19:03.507Z,99109.79
2022-10-23T10:21:44.217Z,99109.23
2022-10-23T10:24:21.529Z,99108.05
2022-10-23T10:27:01.217Z,99099.95
2022-10-23T10:29:47.937Z,99106.77
2022-10-23T10:32:32.890Z,99102.98
2022-10-23T10:35:20.631Z,99094.52
2022-10-23T10:38:07.077Z,99088.45
2022-10-23T10:40:43.382Z,99075.35
2022-10-23T10:43:25.292Z,99071.58
2022-10-23T10:46:02.581Z,99071.88
2022-10-23T10:48:44.382Z,99072.66
2022-10-23T10:51:23.377Z,99073.30
2022-10-23T10:54:11.541Z,99066.84
2022-10-23T10:56:46.583Z,99056.11
2022-10-23T10:59:22.190Z,99051.94
2022-10-23T11:01:59.874Z,99046.83
2022-10-23T11:04:38.315Z,99049.92
2022-10-23T11:07:15.668Z,99039.91
2022-10-23T11:09:47.474Z,99036.90
2022-10-23T11:12:22.850Z,99028.24
2022-10-23T11:14:54.811Z,99022.14
2022-10-23T11:17:32.387Z,99021.98
2022-10-23T11:20:12.451Z,99011.59
2022-10-23T11:22:53.912Z,99008.70
2022-10-23T11:25:50.066Z,99013.35
2022-10-23T11:28:38.019Z,99005.95
2022-10-23T11:31:20.359Z,99003.13
2022-10-23T11:34:33.470Z,98993.06
2022-10-23T11:37:06.971Z,98991.65
2022-10-23T11:39:40.677Z,98994.95
2022-10-23T11:42:32.150Z,98984.66
2022-10-23T11:45:03.986Z,98991.52
2022-10-23T11:47:40.300Z,98987.50
2022-10-23T11:50:31.133Z,98979.90
2022-10-23T11:53:14.610Z,98974.98
2022-10-23T11:56:02.658Z,98972.05
2022-10-23T11:58:47.602Z,98965.17
2022-10-23T12:01:44.178Z,98958.81
2022-10-23T12:04:26.658Z,98948.44
2022-10-23T12:07:01.405Z,98942.86
2022-10-23T12:09:40.892Z,98936.59
2022-10-23T12:12:29.407Z,98935.70
2022-10-23T12:15:20.975Z,98926.44
2022-10-23T12:17:55.321Z,98927.60
2022-10-23T12:20:37.901Z,98927.20
2022-10-23T12:23:43.293Z,98930.21
2022-10-23T12:26:40.031Z,98932.63
2022-10-23T12:29:18.031Z,98936.74
2022-10-23T12:32:01.905Z,98937.77
2022-10-23T12:34:37.445Z,98939.44
2022-10-23T12:37:27.712Z,98934.83
2022-10-23T12:40:02.070Z,98936.35
2022-10-23T12:42:33.816Z,98934.34
2022-10-23T12:45:23.887Z,98933.59
2022-10-23T12:47:56.041Z,98929.72
2022-10-23T12:50:30.207Z,98924.42
2022-10-23T12:53:06.826Z,98918.80
2022-10-23T12:55:52.672Z,98916.46
2022-10-23T12:58:26.463Z,98914.35
2022-10-23T13:01:00.189Z,98906.50
2022-10-23T13:03:34.975Z,98910.56
2022-10-23T13:06:12.380Z,98911.71
2022-10-23T13:08:48.039Z,98915.92
2022-10-23T13:11:23.066Z,98914.70
2022-10-23T13:13:55.426Z,98913.21
2022-10-23T13:16:28.293Z,98907.08
2022-10-23T13:19:00.286Z,98902.95
2022-10-23T13:21:33.697Z,98904.66
2022-10-23T13:24:05.913Z,98907.76
2022-10-23T13:26:45.099Z,98908.95
2022-10-23T13:29:23.189Z,98902.83
2022-10-23T13:31:55.243Z,98905.11
2022-10-23T13:34:29.536Z,98903.91
2022-10-23T13:37:04.933Z,98896.49
2022-10-23T13:39:36.967Z,98896.14
2022-10-23T13:42:16.328Z,98888.73
2022-10-23T13:44:48.216Z,98883.47
2022-10-23T13:47:20.450Z,98883.58
2022-10-23T13:49:52.133Z,98885.89
2022-10-23T13:52:26.696Z,98886.02
2022-10-23T13:54:58.392Z,98880.43
2022-10-23T13:57:30.129Z,98878.48
2022-10-23T14:00:01.797Z,98878.48
2022-10-23T14:02:34.295Z,98881.96
2022-10-23T14:05:06.583Z,98880.26
2022-10-23T14:07:38.411Z,98874.23
2022-10-23T14:10:11.216Z,98872.02
2022-10-23T14:12:44.981Z,98873.12
2022-10-23T14:15:17.125Z,98869.09
2022-10-23T14:17:48.927Z,98866.13
2022-10-23T14:20:24.329Z,98872.53
2022-10-23T14:22:58.076Z,98872.20
2022-10-23T14:25:29.739Z,98871.47
2022-10-23T14:28:01.497Z,98876.34
2022-10-23T14:30:33.488Z,98872.23
2022-10-23T14:33:05.509Z,98869.89
2022-10-23T14:35:40.044Z,98869.63
2022-10-23T14:38:11.732Z,98873.60
2022-10-23T14:40:43.503Z,98872.29
2022-10-23T14:43:15.229Z,98872.02
2022-10-23T14:45:46.960Z,98868.64
2022-10-23T14:48:18.660Z,98862.27
2022-10-23T14:50:51.534Z,98859.53
2022-10-23T14:53:23.214Z,98857.86
2022-10-23T14:55:54.952Z,98859.54
2022-10-23T14:58:26.890Z,98855.23
2022-10-23T15:01:02.123Z,98856.23
2022-10-23T15:03:34.219Z,98855.33
2022-10-23T15:06:07.488Z,98854.80
2022-10-23T15:08:40.194Z,98848.00
2022-10-23T15:11:12.800Z,98854.68
2022-10-23T15:13:44.048Z,98850.77
2022-10-23T15:16:16.283Z,98847.70
2022-10-23T15:18:47.991Z,98842.48
2022-10-23T15:21:19.728Z,98844.21
2022-10-23T15:23:53.278Z,98846.40
2022-10-23T15:26:25.597Z,98846.93
2022-10-23T15:28:59.311Z,98847.79
2022-10-23T15:31:46.611Z,98846.11
2022-10-23T15:34:20.432Z,98849.38
2022-10-23T15:36:53.195Z,98849.41
2022-10-23T15:39:28.246Z,98849.20
2022-10-23T15:41:59.974Z,98848.45
2022-10-23T15:44:34.152Z,98848.80
2022-10-23T15:47:06.061Z,98852.04
2022-10-23T15:49:38.129Z,98851.35
2022-10-23T15:54:47.601Z,98854.05
2022-10-23T15:57:19.336Z,98848.98
2022-10-23T15:59:51.237Z,98849.95
2022-10-23T16:02:23.532Z,98856.33
2022-10-23T16:04:55.277Z,98856.81
2022-10-23T16:07:27.168Z,98855.88
2022-10-23T16:09:58.940Z,98858.33
2022-10-23T16:12:30.639Z,98863.77
2022-10-23T16:15:02.415Z,98864.66
2022-10-23T16:17:34.079Z,98865.73
2022-10-23T16:20:07.557Z,98868.54
2022-10-23T16:22:42.671Z,98872.33
2022-10-23T16:25:16.907Z,98872.63
2022-10-23T16:27:49.177Z,98876.66
2022-10-23T16:30:23.077Z,98880.95
2022-10-23T16:32:55.463Z,98883.60
2022-10-23T16:35:27.540Z,98883.23
2022-10-23T16:37:59.328Z,98889.28
2022-10-23T16:40:30.939Z,98883.65
2022-10-23T16:43:02.676Z,98884.52
2022-10-23T16:45:37.061Z,98886.77
2022-10-23T16:48:09.820Z,98887.67
2022-10-23T16:50:42.942Z,98891.48
2022-10-23T16:53:14.579Z,98892.54
2022-10-23T16:55:46.375Z,98891.77
2022-10-23T16:58:18.041Z,98888.73
2022-10-23T17:00:58.614Z,98891.77
2022-10-23T17:03:30.810Z,98890.35
2022-10-23T17:06:08.880Z,98893.88
2022-10-23T17:08:43.903Z,98896.15
2022-10-23T17:11:17.941Z,98899.27
2022-10-23T17:13:55.167Z,98908.37
2022-10-23T17:16:35.041Z,98908.69
2022-10-23T17:19:20.914Z,98909.11
2022-10-23T17:22:02.318Z,98909.55
2022-10-23T17:24:34.150Z,98909.21
2022-10-23T17:27:06.207Z,98906.92
2022-10-23T17:29:38.003Z,98899.61
2022-10-23T17:32:09.856Z,98896.69
2022-10-23T17:34:41.443Z,98902.92
2022-10-23T17:37:14.477Z,98903.05
2022-10-23T17:39:46.044Z,98908.05
2022-10-23T17:42:17.509Z,98895.92
2022-10-23T17:44:48.922Z,98895.05
2022-10-23T17:47:20.355Z,98888.73
2022-10-23T17:49:51.742Z,98888.25
2022-10-23T17:52:23.183Z,98884.97
2022-10-23T17:54:55.365Z,98879.05
2022-10-23T17:57:26.843Z,98874.39
2022-10-23T17:59:58.358Z,98870.46
2022-10-23T18:02:29.880Z,98868.77
2022-10-23T18:05:02.130Z,98862.37
2022-10-23T18:07:33.651Z,98864.30
2022-10-23T18:10:05.590Z,98862.45
2022-10-23T18:12:36.989Z,98865.63
2022-10-23T18:15:10.712Z,98863.95
2022-10-23T18:17:42.502Z,98859.05
2022-10-23T18:20:15.698Z,98863.14
2022-10-23T18:22:47.255Z,98864.98
2022-10-23T18:25:18.774Z,98860.95
2022-10-23T18:27:50.239Z,98856.08
2022-10-23T18:30:21.838Z,98860.45
2022-10-23T18:32:53.255Z,98856.73
2022-10-23T18:35:24.718Z,98851.90
2022-10-23T18:37:56.210Z,98847.99
2022-10-23T18:40:28.087Z,98849.48
2022-10-23T18:42:59.856Z,98847.27
2022-10-23T18:45:32.096Z,98844.16
2022-10-23T18:48:04.783Z,98843.10
2022-10-23T18:50:40.040Z,98842.09
2022-10-23T18:53:11.573Z,98845.87
2022-10-23T18:55:50.322Z,98858.83
2022-10-23T18:58:21.782Z,98854.73
2022-10-23T19:00:53.238Z,98847.36
2022-10-23T19:03:24.645Z,98844.73
2022-10-23T19:05:56.027Z,98839.22
2022-10-23T19:08:27.635Z,98836.20
2022-10-23T19:11:00.406Z,98829.89
2022-10-23T19:13:35.296Z,98829.02
2022-10-23T19:16:13.916Z,98824.88
2022-10-23T19:18:50.087Z,98832.23
2022-10-23T19:21:31.000Z,98833.13
2022-10-23T19:24:04.727Z,98833.44
2022-10-23T19:26:35.607Z,98830.46
2022-10-23T19:29:09.199Z,98834.42
2022-10-23T19:31:45.156Z,98830.32
2022-10-23T19:34:20.273Z,98828.59
2022-10-23T19:36:53.537Z,98829.08
2022-10-23T19:39:26.010Z,98836.27
2022-10-23T19:41:58.563Z,98838.78
2022-10-23T19:44:30.221Z,98836.70
2022-10-23T19:47:02.955Z,98843.33
2022-10-23T19:49:34.441Z,98842.75
2022-10-23T19:52:06.395Z,98840.14
2022-10-23T19:54:41.228Z,98839.28
2022-10-23T19:57:12.911Z,98838.86
2022-10-23T19:59:44.504Z,98844.55
2022-10-23T20:02:16.131Z,98839.64
2022-10-23T20:04:47.889Z,98828.42
2022-10-23T20:07:19.435Z,98821.59
2022-10-23T20:09:51.888Z,98813.85
2022-10-23T20:12:23.463Z,98811.59
2022-10-23T20:14:55.024Z,98807.04
2022-10-23T20:17:27.918Z,98808.17
2022-10-23T20:19:59.367Z,98803.42
2022-10-23T20:22:30.840Z,98803.70
2022-10-23T20:25:02.379Z,98802.73
2022-10-23T20:27:33.933Z,98801.46
2022-10-23T20:30:06.289Z,98800.14
2022-10-23T20:32:37.760Z,98803.89
2022-10-23T20:35:11.482Z,98807.34
2022-10-23T20:37:41.586Z,98800.55
2022-10-23T20:40:14.295Z,98792.76
2022-10-23T20:42:45.718Z,98791.00
2022-10-23T20:45:17.156Z,98790.42
2022-10-23T20:47:48.972Z,98787.01
2022-10-23T20:50:20.992Z,98783.66
2022-10-23T20:52:52.830Z,98783.77
2022-10-23T20:55:24.292Z,98780.20
2022-10-23T20:57:55.931Z,98778.09
2022-10-23T21:00:27.444Z,98782.24
2022-10-23T21:03:01.558Z,98784.92
2022-10-23T21:05:35.140Z,98789.16
2022-10-23T21:08:06.864Z,98793.55
2022-10-23T21:10:45.276Z,98790.17
2022-10-23T21:13:16.673Z,98786.50
2022-10-23T21:15:48.207Z,98776.13
2022-10-23T21:18:27.367Z,98771.64
2022-10-23T21:21:11.401Z,98772.33
2022-10-23T21:23:42.914Z,98774.70
2022-10-23T21:26:15.388Z,98775.96
2022-10-23T21:28:56.137Z,98772.97
2022-10-23T21:31:32.842Z,98774.49
2022-10-23T21:34:06.720Z,98773.04
2022-10-23T21:36:48.591Z,98780.99
2022-10-23T21:39:29.835Z,98788.29
2022-10-23T21:42:12.148Z,98784.60
2022-10-23T21:44:43.738Z,98784.02
2022-10-23T21:47:15.232Z,98778.10
2022-10-23T21:49:47.056Z,98770.98
2022-10-23T21:52:19.812Z,98769.10
2022-10-23T21:54:55.607Z,98762.67
2022-10-23T21:57:31.113Z,98758.42
2022-10-23T22:00:05.283Z,98753.73
2022-10-23T22:02:36.858Z,98748.16
2022-10-23T22:05:08.899Z,98745.30
2022-10-23T22:07:40.374Z,98738.10
2022-10-23T22:10:12.751Z,98735.00
2022-10-23T22:12:44.497Z,98732.41
2022-10-23T22:15:15.955Z,98734.05
2022-10-23T22:17:47.651Z,98732.16
2022-10-23T22:20:19.304Z,98728.66
2022-10-23T22:22:50.705Z,98724.48
2022-10-23T22:25:22.371Z,98724.52
2022-10-23T22:27:53.924Z,98727.77
2022-10-23T22:30:27.380Z,98729.30
2022-10-23T22:32:58.967Z,98732.95
2022-10-23T22:35:30.830Z,98720.14
2022-10-23T22:38:02.225Z,98716.92
2022-10-23T22:40:37.335Z,98713.80
2022-10-23T22:43:08.789Z,98713.61
2022-10-23T22:45:40.158Z,98721.48
2022-10-23T22:48:11.613Z,98724.59
2022-10-23T22:50:43.021Z,98718.20
2022-10-23T22:53:14.480Z,98719.52
2022-10-23T22:55:46.039Z,98723.40
2022-10-23T22:58:17.528Z,98719.70
2022-10-23T23:00:49.390Z,98717.55
2022-10-23T23:03:20.937Z,98715.73
2022-10-23T23:05:52.587Z,98714.20
2022-10-23T23:08:24.036Z,98710.65
2022-10-23T23:10:59.268Z,98709.83
2022-10-23T23:13:31.125Z,98706.11
2022-10-23T23:16:02.788Z,98702.02
2022-10-23T23:18:36.070Z,98697.02
2022-10-23T23:21:07.888Z,98697.00
2022-10-23T23:23:39.371Z,98694.04
2022-10-23T23:26:11.542Z,98691.85
2022-10-23T23:28:43.496Z,98694.09
2022-10-23T23:31:18.353Z,98693.89
2022-10-23T23:33:50.254Z,98700.36
2022-10-23T23:36:25.227Z,98695.65
2022-10-23T23:38:58.435Z,98695.55
2022-10-23T23:41:30.814Z,98695.35
2022-10-23T23:44:02.358Z,98690.21
2022-10-23T23:46:33.988Z,98693.59
2022-10-23T23:49:05.576Z,98697.33
2022-10-23T23:51:37.317Z,98696.61
2022-10-23T23:54:08.694Z,98691.41
2022-10-23T23:56:40.240Z,98683.51
2022-10-23T23:59:11.684Z,98685.27
